Aeroporto :
LOGIN :

Iscrizione | Disclaimer

   EN    FR    IT 

 










Sommario :    VFR   VFR Marginale   IFR   IFR Intensivo   IFR Molto Intensivo
Visibilità : 
Base nubi : 
>= 8 km
>= 3000ft
5 / 8 km
1000 / 3000 ft
1500m / 5 km
500 / 1000 ft
800 / 1500m
200 / 500 ft
< 800m
< 200 ft
Simboli :   Temporali  Nebbia  Neve Forte  Precipitazioni Forti  Vento > 20 kt
SIGMETs :   Varie  Temporali  Ghiacco  Turbolenza  Onda orograficha  Ceneri Vulcaniche






- Altitudine del aeroporto : 844 ft
- Codice IATA : OSR


LKMT - Ostrava-Mosnov

ULTIMO METAR :
  • 231830Z 01004KT 330V040 9999 -RA BKN031 07/06 Q1001 NOSIG

METARs OBSOLETI :
  • 231800Z 05003KT 9999 -RA SCT032 SCT048 07/05 Q1001 NOSIG
  • 231730Z 08003KT 9999 -RA FEW030 SCT044 07/05 Q1001 NOSIG
  • 231700Z 14002KT 9999 BKN026 07/06 Q1001 NOSIG
  • 231630Z 19001KT 9999 OVC026 07/05 Q1001 NOSIG
  • 231600Z 20003KT 9999 SCT028 BKN043 07/05 Q1001 NOSIG
  • 231530Z 18003KT 9999 -RA BKN043 08/05 Q1001 NOSIG
  • 231500Z 19005KT 9999 -RA OVC024 08/05 Q1001 NOSIG
  • 231430Z 21008KT 9999 -RA OVC028 08/06 Q1001 NOSIG
  • 231400Z 22007KT 9999 -RA OVC031 08/06 Q1001 NOSIG

TAF TAF LKMT
Valido dal 23 a 18 ore il 24 a 18 ore UTC


231700Z 2318/2418 20010KT 9999 -RA BKN035
TEMPO 2318/2413 18012KT 5000 RA BR BKN020
PROB30
TEMPO 2318/2412 18014G26KT 3000 RA BR BKN006
BECMG 2413/2415 23008KT 9999 BKN025
TEMPO 2415/2418 SCT025



MetMap, La meteo Aeronautica in un colpo d'occhio ! - Copyright ORBIFLY Dicembre 2007 - Disclaimer

ORBIFLY MET'MAP TEAM :

Programmazione e sviluppo : Alexandra Zaïnal
Concezione : Baudouin d'Aumeries
Supporto tecnico e logistico : Manuel Goepfert
Aiuto : Marc-Olivier Méhu
Aiuto per la traduzione : Arnaldo La Scala




FONTI E CREDITI :

   NOAA